createdAt,value
2022-10-19T00:01:32.719Z,8.86
2022-10-19T00:04:03.494Z,8.70
2022-10-19T00:06:35.576Z,8.74
2022-10-19T00:09:14.478Z,8.73
2022-10-19T00:11:43.234Z,8.84
2022-10-19T00:14:14.239Z,8.84
2022-10-19T00:16:42.771Z,8.81
2022-10-19T00:19:13.471Z,8.79
2022-10-19T00:21:40.238Z,8.66
2022-10-19T00:24:08.469Z,8.68
2022-10-19T00:26:35.255Z,8.65
2022-10-19T00:29:02.021Z,8.64
2022-10-19T00:31:28.551Z,8.79
2022-10-19T00:33:56.889Z,8.67
2022-10-19T00:36:32.360Z,8.70
2022-10-19T00:38:59.529Z,8.62
2022-10-19T00:41:30.222Z,8.61
2022-10-19T00:44:03.011Z,8.53
2022-10-19T00:46:32.750Z,8.58
2022-10-19T00:49:10.866Z,8.60
2022-10-19T00:51:41.109Z,8.66
2022-10-19T00:54:09.242Z,8.61
2022-10-19T00:56:39.671Z,8.46
2022-10-19T00:59:07.919Z,8.58
2022-10-19T01:01:34.942Z,8.54
2022-10-19T01:04:03.057Z,8.61
2022-10-19T01:06:30.257Z,8.43
2022-10-19T01:08:56.750Z,8.39
2022-10-19T01:11:32.453Z,8.58
2022-10-19T01:14:11.084Z,8.47
2022-10-19T01:17:02.558Z,8.54
2022-10-19T01:19:50.499Z,8.58
2022-10-19T01:22:29.071Z,8.42
2022-10-19T01:25:38.361Z,8.53
2022-10-19T01:28:37.070Z,8.47
2022-10-19T01:31:06.500Z,8.47
2022-10-19T01:33:42.065Z,8.49
2022-10-19T01:36:22.819Z,8.33
2022-10-19T01:38:58.476Z,8.43
2022-10-19T01:41:35.465Z,8.29
2022-10-19T01:44:10.599Z,8.47
2022-10-19T01:46:40.304Z,8.37
2022-10-19T01:49:23.545Z,8.19
2022-10-19T01:51:55.520Z,8.29
2022-10-19T01:54:24.080Z,8.31
2022-10-19T01:56:54.263Z,8.35
2022-10-19T01:59:21.446Z,8.34
2022-10-19T02:01:51.192Z,8.31
2022-10-19T02:04:21.131Z,8.33
2022-10-19T02:06:48.586Z,8.49
2022-10-19T02:09:18.259Z,8.40
2022-10-19T02:11:49.733Z,8.41
2022-10-19T02:14:22.442Z,8.48
2022-10-19T02:17:05.072Z,8.45
2022-10-19T02:19:31.683Z,8.42
2022-10-19T02:21:58.669Z,8.46
2022-10-19T02:24:25.318Z,8.54
2022-10-19T02:26:53.621Z,8.47
2022-10-19T02:29:20.614Z,8.46
2022-10-19T02:31:47.280Z,8.29
2022-10-19T02:34:14.359Z,8.49
2022-10-19T02:36:41.213Z,8.38
2022-10-19T02:39:08.863Z,8.36
2022-10-19T02:41:42.190Z,8.37
2022-10-19T02:44:24.049Z,8.29
2022-10-19T02:46:57.364Z,8.29
2022-10-19T02:49:24.724Z,8.25
2022-10-19T02:52:05.390Z,8.27
2022-10-19T02:54:32.109Z,8.26
2022-10-19T02:56:58.881Z,8.29
2022-10-19T02:59:25.639Z,8.26
2022-10-19T03:01:52.542Z,8.22
2022-10-19T03:04:19.179Z,8.29
2022-10-19T03:06:46.023Z,8.19
2022-10-19T03:09:12.626Z,8.19
2022-10-19T03:11:39.199Z,8.22
2022-10-19T03:14:05.837Z,8.11
2022-10-19T03:16:32.446Z,7.97
2022-10-19T03:18:59.006Z,8.05
2022-10-19T03:21:25.493Z,8.14
2022-10-19T03:23:52.009Z,8.09
2022-10-19T03:26:18.677Z,7.85
2022-10-19T03:28:45.339Z,7.89
2022-10-19T03:31:12.315Z,7.88
2022-10-19T03:33:39.048Z,7.85
2022-10-19T03:36:25.943Z,7.85
2022-10-19T03:38:54.071Z,7.86
2022-10-19T03:41:22.374Z,7.86
2022-10-19T03:43:49.511Z,7.71
2022-10-19T03:46:16.257Z,7.76
2022-10-19T03:48:43.217Z,7.66
2022-10-19T03:51:21.515Z,7.66
2022-10-19T03:53:51.942Z,7.62
2022-10-19T03:56:21.599Z,7.63
2022-10-19T03:58:50.128Z,7.65
2022-10-19T04:01:19.416Z,7.67
2022-10-19T04:03:45.941Z,7.61
2022-10-19T04:06:21.173Z,7.77
2022-10-19T04:08:49.890Z,7.54
2022-10-19T04:11:18.537Z,7.57
2022-10-19T04:13:47.698Z,7.53
2022-10-19T04:16:14.314Z,7.53
2022-10-19T04:18:40.865Z,7.55
2022-10-19T04:21:07.512Z,7.54
2022-10-19T04:23:35.976Z,7.52
2022-10-19T04:26:05.727Z,7.50
2022-10-19T04:28:33.028Z,7.62
2022-10-19T04:31:04.009Z,7.61
2022-10-19T04:33:30.576Z,7.62
2022-10-19T04:36:01.409Z,7.53
2022-10-19T04:38:29.317Z,7.51
2022-10-19T04:40:56.285Z,7.51
2022-10-19T04:43:23.284Z,7.47
2022-10-19T04:45:49.760Z,7.56
2022-10-19T04:48:16.347Z,7.55
2022-10-19T04:50:42.863Z,7.47
2022-10-19T04:53:09.746Z,7.55
2022-10-19T04:55:41.853Z,7.53
2022-10-19T04:58:08.710Z,7.48
2022-10-19T05:00:37.330Z,7.48
2022-10-19T05:03:04.035Z,7.44
2022-10-19T05:05:32.468Z,7.43
2022-10-19T05:07:59.150Z,7.38
2022-10-19T05:10:25.794Z,7.38
2022-10-19T05:12:52.370Z,7.46
2022-10-19T05:15:18.872Z,7.45
2022-10-19T05:17:45.442Z,7.46
2022-10-19T05:20:12.450Z,7.34
2022-10-19T05:22:39.777Z,7.45
2022-10-19T05:25:07.496Z,7.35
2022-10-19T05:27:34.356Z,7.37
2022-10-19T05:30:01.036Z,7.41
2022-10-19T05:32:28.156Z,7.48
2022-10-19T05:34:54.704Z,7.42
2022-10-19T05:37:21.800Z,7.43
2022-10-19T05:39:48.426Z,7.34
2022-10-19T05:42:15.083Z,7.28
2022-10-19T05:44:41.588Z,7.34
2022-10-19T05:47:08.237Z,7.30
2022-10-19T05:49:34.751Z,7.30
2022-10-19T05:52:01.302Z,7.32
2022-10-19T05:54:28.626Z,7.43
2022-10-19T05:56:56.025Z,7.36
2022-10-19T05:59:23.916Z,7.34
2022-10-19T06:01:50.557Z,7.29
2022-10-19T06:06:43.673Z,7.30
2022-10-19T06:09:10.469Z,7.16
2022-10-19T06:11:40.092Z,7.25
2022-10-19T06:14:11.095Z,7.18
2022-10-19T06:16:38.297Z,7.25
2022-10-19T06:19:05.969Z,7.26
2022-10-19T06:21:33.792Z,7.30
2022-10-19T06:24:03.119Z,7.24
2022-10-19T06:26:31.923Z,7.42
2022-10-19T06:29:00.552Z,7.34
2022-10-19T06:31:31.532Z,7.28
2022-10-19T06:33:58.480Z,7.38
2022-10-19T06:36:28.301Z,7.36
2022-10-19T06:38:56.513Z,7.19
2022-10-19T06:41:23.640Z,7.29
2022-10-19T06:43:51.868Z,7.45
2022-10-19T06:46:23.443Z,7.36
2022-10-19T06:49:01.274Z,7.39
2022-10-19T06:51:30.395Z,7.44
2022-10-19T06:53:57.638Z,7.49
2022-10-19T06:56:26.692Z,7.46
2022-10-19T06:58:54.193Z,7.54
2022-10-19T07:01:21.261Z,7.54
2022-10-19T07:03:47.981Z,7.52
2022-10-19T07:06:15.656Z,7.79
2022-10-19T07:08:43.281Z,7.62
2022-10-19T07:11:12.800Z,7.85
2022-10-19T07:13:39.550Z,7.82
2022-10-19T07:16:14.662Z,7.77
2022-10-19T07:18:44.972Z,7.67
2022-10-19T07:21:14.330Z,7.92
2022-10-19T07:23:42.758Z,7.91
2022-10-19T07:26:18.053Z,7.94
2022-10-19T07:28:46.987Z,7.96
2022-10-19T07:31:17.858Z,8.09
2022-10-19T07:33:44.773Z,8.10
2022-10-19T07:36:13.259Z,8.11
2022-10-19T07:38:40.574Z,8.32
2022-10-19T07:41:16.339Z,8.29
2022-10-19T07:43:44.745Z,8.20
2022-10-19T07:46:14.877Z,8.33
2022-10-19T07:48:42.239Z,8.51
2022-10-19T07:51:10.126Z,8.60
2022-10-19T07:53:38.356Z,8.55
2022-10-19T07:56:08.862Z,8.77
2022-10-19T07:58:36.881Z,8.87
2022-10-19T08:01:05.767Z,9.16
2022-10-19T08:06:20.308Z,9.60
2022-10-19T08:08:48.368Z,9.64
2022-10-19T08:11:35.062Z,9.76
2022-10-19T08:14:05.020Z,9.71
2022-10-19T08:16:38.869Z,10.06
2022-10-19T08:19:08.248Z,9.96
2022-10-19T08:21:36.279Z,10.14
2022-10-19T08:24:03.277Z,10.13
2022-10-19T08:26:31.244Z,10.08
2022-10-19T08:29:01.780Z,10.12
2022-10-19T08:31:29.057Z,10.32
2022-10-19T08:33:55.791Z,10.29
2022-10-19T08:36:22.935Z,10.38
2022-10-19T08:38:50.367Z,10.38
2022-10-19T08:41:33.551Z,10.79
2022-10-19T08:44:18.828Z,10.78
2022-10-19T08:47:12.530Z,10.96
2022-10-19T08:49:41.699Z,10.95
2022-10-19T08:52:18.106Z,11.11
2022-10-19T08:54:59.200Z,10.69
2022-10-19T08:57:59.347Z,10.90
2022-10-19T09:00:55.286Z,11.01
2022-10-19T09:03:55.888Z,11.16
2022-10-19T09:06:25.629Z,11.23
2022-10-19T09:08:54.785Z,11.24
2022-10-19T09:11:27.398Z,11.26
2022-10-19T09:14:05.244Z,11.37
2022-10-19T09:16:33.729Z,11.26
2022-10-19T09:19:00.337Z,11.60
2022-10-19T09:21:47.080Z,11.87
2022-10-19T09:24:29.940Z,11.62
2022-10-19T09:26:59.876Z,11.56
2022-10-19T09:29:36.549Z,11.53
2022-10-19T09:32:11.707Z,11.65
2022-10-19T09:34:43.744Z,11.66
2022-10-19T09:37:18.827Z,11.74
2022-10-19T09:39:54.044Z,11.89
2022-10-19T09:42:33.660Z,11.92
2022-10-19T09:45:06.661Z,11.88
2022-10-19T09:47:39.093Z,11.93
2022-10-19T09:50:21.642Z,12.15
2022-10-19T09:52:56.540Z,12.34
2022-10-19T09:55:28.586Z,12.15
2022-10-19T09:58:08.597Z,12.09
2022-10-19T10:00:39.180Z,12.25
2022-10-19T10:03:07.506Z,12.27
2022-10-19T10:05:39.300Z,12.10
2022-10-19T10:08:18.041Z,12.14
2022-10-19T10:11:09.795Z,12.02
2022-10-19T10:13:39.593Z,12.02
2022-10-19T10:16:09.424Z,12.19
2022-10-19T10:18:40.205Z,12.16
2022-10-19T10:21:25.122Z,12.19
2022-10-19T10:24:12.490Z,12.19
2022-10-19T10:26:51.329Z,12.55
2022-10-19T10:29:35.418Z,12.43
2022-10-19T10:32:29.208Z,12.49
2022-10-19T10:34:57.293Z,12.45
2022-10-19T10:37:38.959Z,12.52
2022-10-19T10:40:19.906Z,12.66
2022-10-19T10:42:49.659Z,12.45
2022-10-19T10:45:39.719Z,12.69
2022-10-19T10:48:30.652Z,12.89
2022-10-19T10:50:59.725Z,12.81
2022-10-19T10:53:45.405Z,12.81
2022-10-19T10:56:27.059Z,12.89
2022-10-19T10:58:58.854Z,13.19
2022-10-19T11:01:32.251Z,13.09
2022-10-19T11:04:29.247Z,13.54
2022-10-19T11:07:01.027Z,13.29
2022-10-19T11:09:44.594Z,13.69
2022-10-19T11:12:16.193Z,13.50
2022-10-19T11:14:53.857Z,13.34
2022-10-19T11:17:25.497Z,13.21
2022-10-19T11:19:52.197Z,13.32
2022-10-19T11:22:24.879Z,13.65
2022-10-19T11:24:56.575Z,13.77
2022-10-19T11:28:00.549Z,13.76
2022-10-19T11:30:31.425Z,13.54
2022-10-19T11:33:26.250Z,13.44
2022-10-19T11:36:02.142Z,13.32
2022-10-19T11:39:03.267Z,13.63
2022-10-19T11:41:46.715Z,13.73
2022-10-19T11:44:37.359Z,13.43
2022-10-19T11:47:22.323Z,13.42
2022-10-19T11:50:12.802Z,13.64
2022-10-19T11:53:11.519Z,13.97
2022-10-19T11:55:55.549Z,13.93
2022-10-19T11:58:36.581Z,13.96
2022-10-19T12:01:06.066Z,14.26
2022-10-19T12:03:41.976Z,14.16
2022-10-19T12:06:09.339Z,14.00
2022-10-19T12:09:13.169Z,14.03
2022-10-19T12:11:59.732Z,13.90
2022-10-19T12:14:32.042Z,14.09
2022-10-19T12:17:05.803Z,14.21
2022-10-19T12:19:39.395Z,14.33
2022-10-19T12:22:13.506Z,14.29
2022-10-19T12:24:40.105Z,14.21
2022-10-19T12:27:07.079Z,14.42
2022-10-19T12:29:37.868Z,14.45
2022-10-19T12:32:05.915Z,14.32
2022-10-19T12:34:50.194Z,14.34
2022-10-19T12:37:40.998Z,14.34
2022-10-19T12:40:16.604Z,14.56
2022-10-19T12:42:51.633Z,14.68
2022-10-19T12:45:27.332Z,14.58
2022-10-19T12:48:21.568Z,14.63
2022-10-19T12:50:48.043Z,14.46
2022-10-19T12:53:35.945Z,14.44
2022-10-19T12:56:10.090Z,14.42
2022-10-19T12:58:48.156Z,14.58
2022-10-19T13:01:20.034Z,14.72
2022-10-19T13:03:48.419Z,14.53
2022-10-19T13:06:24.231Z,14.78
2022-10-19T13:08:53.511Z,14.94
2022-10-19T13:11:21.071Z,15.01
2022-10-19T13:13:58.613Z,15.08
2022-10-19T13:16:37.234Z,15.45
2022-10-19T13:19:12.870Z,15.30
2022-10-19T13:21:54.389Z,15.14
2022-10-19T13:24:27.059Z,15.37
2022-10-19T13:27:02.992Z,15.18
2022-10-19T13:29:39.224Z,15.36
2022-10-19T13:32:37.775Z,15.40
2022-10-19T13:35:24.033Z,15.81
2022-10-19T13:38:16.305Z,15.64
2022-10-19T13:40:49.129Z,15.84
2022-10-19T13:43:22.358Z,15.52
2022-10-19T13:46:33.787Z,15.83
2022-10-19T13:49:38.107Z,15.87
2022-10-19T13:52:07.594Z,15.33
2022-10-19T13:54:53.427Z,15.63
2022-10-19T13:57:50.136Z,15.86
2022-10-19T14:00:21.436Z,16.00
2022-10-19T14:02:55.957Z,15.75
2022-10-19T14:05:25.385Z,16.04
2022-10-19T14:08:04.085Z,15.50
2022-10-19T14:10:32.776Z,15.75
2022-10-19T14:13:06.818Z,15.40
2022-10-19T14:15:35.070Z,15.04
2022-10-19T14:18:03.821Z,15.20
2022-10-19T14:20:35.665Z,14.97
2022-10-19T14:23:23.650Z,15.09
2022-10-19T14:25:52.527Z,15.00
2022-10-19T14:28:19.362Z,14.95
2022-10-19T14:30:55.477Z,14.89
2022-10-19T14:33:22.298Z,15.00
2022-10-19T14:35:50.608Z,14.90
2022-10-19T14:38:37.178Z,14.58
2022-10-19T14:41:06.457Z,14.56
2022-10-19T14:43:34.972Z,14.50
2022-10-19T14:46:07.713Z,14.58
2022-10-19T14:48:36.340Z,14.37
2022-10-19T14:51:10.675Z,14.21
2022-10-19T14:53:42.119Z,14.36
2022-10-19T14:56:14.429Z,14.27
2022-10-19T14:58:58.014Z,14.14
2022-10-19T15:01:24.706Z,14.11
2022-10-19T15:03:51.712Z,14.07
2022-10-19T15:06:22.957Z,13.96
2022-10-19T15:08:56.504Z,13.86
2022-10-19T15:11:31.026Z,13.91
2022-10-19T15:14:05.626Z,13.89
2022-10-19T15:16:33.679Z,14.08
2022-10-19T15:19:05.660Z,13.99
2022-10-19T15:21:33.514Z,13.99
2022-10-19T15:24:21.208Z,13.82
2022-10-19T15:27:06.462Z,13.88
2022-10-19T15:29:35.093Z,13.66
2022-10-19T15:32:15.867Z,13.75
2022-10-19T15:34:45.152Z,13.57
2022-10-19T15:37:20.105Z,13.45
2022-10-19T15:39:47.491Z,13.57
2022-10-19T15:42:38.222Z,13.33
2022-10-19T15:45:35.752Z,13.44
2022-10-19T15:48:26.502Z,13.42
2022-10-19T15:50:54.038Z,13.40
2022-10-19T15:53:21.778Z,13.37
2022-10-19T15:55:49.135Z,13.25
2022-10-19T15:58:16.147Z,13.22
2022-10-19T16:00:42.809Z,13.26
2022-10-19T16:03:09.429Z,13.16
2022-10-19T16:05:36.703Z,13.11
2022-10-19T16:08:03.718Z,13.09
2022-10-19T16:10:30.266Z,13.03
2022-10-19T16:12:56.816Z,12.97
2022-10-19T16:15:24.051Z,12.97
2022-10-19T16:17:59.727Z,12.74
2022-10-19T16:20:28.471Z,12.82
2022-10-19T16:22:55.139Z,12.86
2022-10-19T16:25:21.745Z,12.78
2022-10-19T16:27:48.352Z,12.73
2022-10-19T16:30:14.986Z,12.70
2022-10-19T16:35:10.075Z,12.60
2022-10-19T16:37:37.312Z,12.48
2022-10-19T16:40:05.332Z,12.46
2022-10-19T16:42:32.774Z,12.54
2022-10-19T16:44:59.561Z,12.44
2022-10-19T16:47:26.225Z,12.48
2022-10-19T16:50:00.734Z,12.38
2022-10-19T16:52:28.991Z,12.29
2022-10-19T16:54:55.549Z,12.30
2022-10-19T16:57:22.236Z,12.24
2022-10-19T17:02:21.557Z,12.18
2022-10-19T17:04:48.212Z,12.17
2022-10-19T17:07:15.581Z,12.11
2022-10-19T17:09:43.176Z,12.10
2022-10-19T17:12:11.068Z,12.06
2022-10-19T17:14:39.989Z,12.04
2022-10-19T17:17:07.251Z,12.01
2022-10-19T17:19:34.125Z,11.96
2022-10-19T17:22:02.168Z,11.96
2022-10-19T17:24:29.252Z,11.94
2022-10-19T17:26:55.953Z,11.84
2022-10-19T17:29:22.935Z,11.83
2022-10-19T17:31:50.151Z,11.83
2022-10-19T17:34:17.618Z,11.80
2022-10-19T17:36:45.713Z,11.78
2022-10-19T17:39:18.801Z,11.74
2022-10-19T17:41:46.918Z,11.67
2022-10-19T17:44:14.493Z,11.57
2022-10-19T17:46:41.162Z,11.58
2022-10-19T17:49:07.702Z,11.64
2022-10-19T17:51:35.601Z,11.58
2022-10-19T17:54:05.551Z,11.53
2022-10-19T17:56:32.344Z,11.56
2022-10-19T17:58:59.813Z,11.49
2022-10-19T18:01:26.898Z,11.60
2022-10-19T18:03:53.951Z,11.41
2022-10-19T18:06:23.829Z,11.47
2022-10-19T18:08:54.419Z,11.55
2022-10-19T18:11:26.766Z,11.49
2022-10-19T18:13:58.411Z,11.43
2022-10-19T18:16:26.776Z,11.48
2022-10-19T18:18:55.412Z,11.37
2022-10-19T18:21:25.580Z,11.34
2022-10-19T18:23:53.686Z,11.34
2022-10-19T18:26:23.917Z,11.32
2022-10-19T18:28:55.272Z,11.34
2022-10-19T18:31:25.173Z,11.34
2022-10-19T18:34:14.241Z,11.27
2022-10-19T18:36:41.192Z,11.33
2022-10-19T18:39:07.763Z,11.39
2022-10-19T18:41:34.360Z,11.29
2022-10-19T18:44:03.753Z,11.34
2022-10-19T18:46:30.819Z,11.35
2022-10-19T18:48:57.487Z,11.26
2022-10-19T18:51:24.295Z,11.31
2022-10-19T18:53:51.158Z,11.28
2022-10-19T18:56:20.607Z,11.14
2022-10-19T18:58:47.338Z,11.22
2022-10-19T19:01:17.305Z,11.20
2022-10-19T19:03:46.358Z,11.26
2022-10-19T19:06:29.310Z,11.21
2022-10-19T19:08:57.537Z,11.16
2022-10-19T19:11:31.804Z,11.15
2022-10-19T19:14:05.114Z,11.10
2022-10-19T19:16:37.545Z,11.13
2022-10-19T19:19:05.433Z,11.03
2022-10-19T19:21:32.626Z,10.99
2022-10-19T19:24:01.471Z,11.04
2022-10-19T19:26:31.230Z,10.87
2022-10-19T19:28:58.212Z,11.05
2022-10-19T19:31:24.968Z,10.94
2022-10-19T19:33:51.688Z,10.95
2022-10-19T19:36:19.692Z,11.00
2022-10-19T19:38:48.986Z,10.92
2022-10-19T19:41:16.433Z,10.82
2022-10-19T19:43:43.810Z,10.93
2022-10-19T19:46:16.697Z,10.85
2022-10-19T19:48:46.392Z,10.90
2022-10-19T19:51:18.876Z,10.85
2022-10-19T19:53:47.391Z,10.83
2022-10-19T19:56:15.567Z,10.77
2022-10-19T19:58:43.704Z,10.69
2022-10-19T20:01:13.537Z,10.73
2022-10-19T20:03:41.111Z,10.80
2022-10-19T20:06:08.664Z,10.75
2022-10-19T20:08:36.847Z,10.68
2022-10-19T20:11:05.978Z,10.73
2022-10-19T20:13:33.169Z,10.66
2022-10-19T20:16:06.328Z,10.63
2022-10-19T20:18:32.957Z,10.69
2022-10-19T20:21:04.002Z,10.57
2022-10-19T20:23:31.280Z,10.58
2022-10-19T20:25:58.069Z,10.48
2022-10-19T20:28:27.529Z,10.34
2022-10-19T20:31:01.304Z,10.42
2022-10-19T20:33:30.411Z,10.50
2022-10-19T20:35:57.025Z,10.42
2022-10-19T20:38:23.585Z,10.45
2022-10-19T20:40:50.093Z,10.49
2022-10-19T20:43:17.606Z,10.41
2022-10-19T20:45:44.129Z,10.40
2022-10-19T20:48:10.682Z,10.34
2022-10-19T20:50:37.254Z,10.29
2022-10-19T20:53:03.748Z,10.17
2022-10-19T20:55:30.360Z,10.25
2022-10-19T20:57:56.903Z,10.12
2022-10-19T21:00:23.451Z,10.26
2022-10-19T21:02:50.103Z,10.11
2022-10-19T21:05:16.851Z,10.27
2022-10-19T21:07:43.348Z,10.03
2022-10-19T21:10:09.874Z,10.21
2022-10-19T21:12:36.725Z,10.20
2022-10-19T21:15:04.655Z,10.10
2022-10-19T21:20:02.780Z,10.22
2022-10-19T21:22:29.486Z,10.18
2022-10-19T21:24:56.848Z,10.00
2022-10-19T21:27:23.412Z,10.14
2022-10-19T21:29:49.992Z,10.11
2022-10-19T21:32:18.336Z,10.03
2022-10-19T21:34:44.885Z,10.11
2022-10-19T21:37:11.352Z,9.91
2022-10-19T21:39:39.458Z,10.10
2022-10-19T21:42:06.413Z,10.02
2022-10-19T21:44:32.963Z,10.16
2022-10-19T21:46:59.531Z,10.06
2022-10-19T21:49:26.214Z,10.07
2022-10-19T21:51:54.572Z,10.06
2022-10-19T21:54:25.061Z,10.03
2022-10-19T21:56:53.199Z,10.13
2022-10-19T21:59:19.920Z,10.17
2022-10-19T22:01:46.439Z,10.09
2022-10-19T22:04:15.102Z,10.15
2022-10-19T22:06:42.270Z,10.11
2022-10-19T22:09:12.396Z,10.02
2022-10-19T22:11:39.205Z,10.14
2022-10-19T22:14:05.917Z,10.21
2022-10-19T22:16:35.211Z,10.15
2022-10-19T22:19:01.922Z,10.15
2022-10-19T22:21:30.777Z,10.20
2022-10-19T22:24:07.027Z,10.13
2022-10-19T22:26:40.707Z,10.11
2022-10-19T22:29:08.187Z,10.21
2022-10-19T22:31:36.479Z,10.14
2022-10-19T22:34:09.311Z,10.20
2022-10-19T22:36:36.276Z,10.13
2022-10-19T22:39:03.348Z,10.14
2022-10-19T22:42:26.448Z,10.13
2022-10-19T22:44:53.015Z,10.11
2022-10-19T22:47:19.545Z,10.13
2022-10-19T22:49:46.182Z,10.10
2022-10-19T22:52:12.885Z,10.16
2022-10-19T22:54:39.463Z,9.99
2022-10-19T22:57:06.063Z,10.16
2022-10-19T22:59:33.220Z,10.16
2022-10-19T23:01:59.939Z,10.06
2022-10-19T23:04:26.644Z,10.19
2022-10-19T23:06:53.227Z,10.02
2022-10-19T23:09:19.828Z,10.09
2022-10-19T23:11:46.605Z,10.10
2022-10-19T23:14:13.130Z,10.03
2022-10-19T23:16:39.721Z,9.94
2022-10-19T23:19:06.311Z,10.05
2022-10-19T23:21:32.952Z,10.06
2022-10-19T23:23:59.485Z,10.01
2022-10-19T23:26:26.049Z,10.02
2022-10-19T23:28:52.721Z,9.94
2022-10-19T23:31:24.440Z,9.97
2022-10-19T23:33:51.922Z,10.02
2022-10-19T23:36:24.077Z,9.94
2022-10-19T23:38:52.408Z,10.03
2022-10-19T23:41:20.029Z,9.93
2022-10-19T23:43:46.816Z,9.84
2022-10-19T23:46:14.177Z,9.77
2022-10-19T23:48:41.896Z,9.82
2022-10-19T23:51:14.485Z,9.83
2022-10-19T23:53:43.945Z,9.82
2022-10-19T23:56:16.957Z,9.78
2022-10-19T23:58:44.007Z,9.77
